createdAt,value
2023-04-13T00:03:22.845Z,5.24
2023-04-13T00:17:34.925Z,5.17
2023-04-13T00:45:58.795Z,5.24
2023-04-13T01:00:11.950Z,5.44
2023-04-13T01:14:24.447Z,5.35
2023-04-13T01:28:37.055Z,5.34
2023-04-13T01:42:48.627Z,5.31
2023-04-13T01:57:00.371Z,5.36
2023-04-13T02:11:13.436Z,5.6
2023-04-13T02:25:27.591Z,6.13
2023-04-13T02:39:40.739Z,6.56
2023-04-13T02:53:55.327Z,6.74
2023-04-13T03:08:06.732Z,6.81
2023-04-13T03:22:19.724Z,6.98
2023-04-13T03:36:31.800Z,7.06
2023-04-13T03:50:44.458Z,7.14
2023-04-13T04:04:59.610Z,7.21
2023-04-13T04:19:08.204Z,7.3
2023-04-13T04:33:21.191Z,7.35
2023-04-13T04:47:33.242Z,7.38
2023-04-13T05:01:45.365Z,7.25
2023-04-13T05:15:57.808Z,7.3
2023-04-13T05:30:10.543Z,7.42
2023-04-13T05:44:22.759Z,7.5
2023-04-13T05:58:38.197Z,7.77
2023-04-13T06:04:16.804Z,7.88
2023-04-13T06:12:49.091Z,7.90
2023-04-13T06:13:51.335Z,7.98
2023-04-13T06:23:25.198Z,7.99
2023-04-13T06:32:56.722Z,8.05
2023-04-13T06:42:30.738Z,8.09
2023-04-13T06:43:34.932Z,8.12
2023-04-13T06:53:07.951Z,8.08
2023-04-13T07:02:40.400Z,8.22
2023-04-13T07:03:44.506Z,8.24
2023-04-13T07:04:46.840Z,8.27
2023-04-13T07:05:49.465Z,8.34
2023-04-13T07:06:51.873Z,8.38
2023-04-13T07:16:24.532Z,8.44
2023-04-13T07:17:28.620Z,8.48
2023-04-13T07:18:30.923Z,8.49
2023-04-13T07:19:33.435Z,8.51
2023-04-13T07:20:35.817Z,8.55
2023-04-13T07:21:39.869Z,8.57
2023-04-13T07:22:42.270Z,8.67
2023-04-13T07:23:44.743Z,8.72
2023-04-13T07:24:48.707Z,8.77
2023-04-13T07:25:51.098Z,8.80
2023-04-13T07:26:55.177Z,8.82
2023-04-13T07:27:59.312Z,8.88
2023-04-13T07:29:03.212Z,8.97
2023-04-13T07:30:05.446Z,8.95
2023-04-13T07:31:07.956Z,8.99
2023-04-13T07:41:42.771Z,8.77
2023-04-13T07:42:46.841Z,8.79
2023-04-13T07:43:50.784Z,8.81
2023-04-13T07:44:53.231Z,8.88
2023-04-13T07:45:57.160Z,8.99
2023-04-13T07:46:59.580Z,9.00
2023-04-13T07:48:03.766Z,9.03
2023-04-13T07:49:07.626Z,9.10
2023-04-13T07:50:11.516Z,9.13
2023-04-13T07:51:13.883Z,9.15
2023-04-13T07:52:17.364Z,9.21
2023-04-13T07:53:19.507Z,9.26
2023-04-13T07:54:23.522Z,9.30
2023-04-13T07:55:27.461Z,9.34
2023-04-13T07:56:29.811Z,9.33
2023-04-13T07:57:32.242Z,9.34
2023-04-13T07:58:36.335Z,9.35
2023-04-13T07:59:38.657Z,9.29
2023-04-13T08:00:41.077Z,9.31
2023-04-13T08:02:47.765Z,9.27
2023-04-13T08:03:51.588Z,9.24
2023-04-13T08:04:53.835Z,9.28
2023-04-13T08:05:57.736Z,9.24
2023-04-13T08:07:01.706Z,9.18
2023-04-13T08:09:08.106Z,9.17
2023-04-13T08:10:10.502Z,9.24
2023-04-13T08:11:12.967Z,9.22
2023-04-13T08:12:15.411Z,9.19
2023-04-13T08:13:17.891Z,9.15
2023-04-13T08:14:20.288Z,9.17
2023-04-13T08:15:22.792Z,9.20
2023-04-13T08:16:25.282Z,9.25
2023-04-13T08:17:27.708Z,9.27
2023-04-13T08:18:31.685Z,9.30
2023-04-13T08:19:34.174Z,9.33
2023-04-13T08:21:40.610Z,9.35
2023-04-13T08:22:44.556Z,9.36
2023-04-13T08:23:46.877Z,9.38
2023-04-13T08:25:53.230Z,9.42
2023-04-13T08:26:55.696Z,9.44
2023-04-13T08:27:59.733Z,9.46
2023-04-13T08:29:03.664Z,9.44
2023-04-13T08:30:07.650Z,9.48
2023-04-13T08:31:11.617Z,9.52
2023-04-13T08:32:15.681Z,9.55
2023-04-13T08:33:21.539Z,9.58
2023-04-13T08:34:23.739Z,9.54
2023-04-13T08:35:26.140Z,9.58
2023-04-13T08:36:28.612Z,9.62
2023-04-13T08:37:31.153Z,9.63
2023-04-13T08:38:35.112Z,9.64
2023-04-13T08:40:40.137Z,9.61
2023-04-13T08:41:44.085Z,9.63
2023-04-13T08:42:47.888Z,9.61
2023-04-13T08:43:51.785Z,9.63
2023-04-13T08:44:55.593Z,9.64
2023-04-13T08:45:59.661Z,9.66
2023-04-13T08:47:03.521Z,9.67
2023-04-13T08:49:09.880Z,9.65
2023-04-13T08:50:13.798Z,9.66
2023-04-13T08:51:17.750Z,9.63
2023-04-13T08:52:21.655Z,9.58
2023-04-13T08:53:25.573Z,9.60
2023-04-13T08:54:29.489Z,9.57
2023-04-13T09:03:59.837Z,9.47
2023-04-13T09:05:02.171Z,9.49
2023-04-13T09:06:08.554Z,9.54
2023-04-13T09:07:10.577Z,9.63
2023-04-13T09:08:13.077Z,9.71
2023-04-13T09:09:17.085Z,9.74
2023-04-13T09:10:21.120Z,9.81
2023-04-13T09:11:23.470Z,9.86
2023-04-13T09:12:27.520Z,9.84
2023-04-13T09:14:33.884Z,9.89
2023-04-13T09:15:36.224Z,9.86
2023-04-13T09:16:38.674Z,9.88
2023-04-13T09:17:41.218Z,9.89
2023-04-13T09:19:49.357Z,9.96
2023-04-13T09:20:51.660Z,9.98
2023-04-13T09:21:54.132Z,10.02
2023-04-13T09:22:58.243Z,10.07
2023-04-13T09:24:00.643Z,10.12
2023-04-13T09:25:03.246Z,10.13
2023-04-13T09:26:05.742Z,10.11
2023-04-13T09:27:11.027Z,10.08
2023-04-13T09:28:13.391Z,10.11
2023-04-13T09:29:15.871Z,10.13
2023-04-13T09:30:18.340Z,10.16
2023-04-13T09:31:20.811Z,10.18
2023-04-13T09:32:24.840Z,10.20
2023-04-13T09:33:27.295Z,10.24
2023-04-13T09:34:29.675Z,10.23
2023-04-13T09:35:32.217Z,10.31
2023-04-13T09:36:34.991Z,10.35
2023-04-13T09:37:38.787Z,10.40
2023-04-13T09:38:45.075Z,10.45
2023-04-13T09:39:47.245Z,10.53
2023-04-13T09:40:49.720Z,10.60
2023-04-13T09:41:56.210Z,10.62
2023-04-13T09:43:01.214Z,10.64
2023-04-13T09:44:06.049Z,10.70
2023-04-13T09:45:09.946Z,10.83
2023-04-13T09:46:12.316Z,10.96
2023-04-13T09:47:14.643Z,11.00
2023-04-13T09:48:18.216Z,11.07
2023-04-13T09:49:22.301Z,11.13
2023-04-13T09:51:30.838Z,11.16
2023-04-13T09:52:36.397Z,11.12
2023-04-13T09:53:38.597Z,11.13
2023-04-13T09:54:41.147Z,11.14
2023-04-13T09:55:45.253Z,11.12
2023-04-13T10:06:21.500Z,10.91
2023-04-13T10:07:25.605Z,11.00
2023-04-13T10:08:37.838Z,11.06
2023-04-13T10:09:33.199Z,11.15
2023-04-13T10:10:37.544Z,11.22
2023-04-13T10:11:39.905Z,11.19
2023-04-13T10:12:42.643Z,11.23
2023-04-13T10:13:47.717Z,11.31
2023-04-13T10:14:50.082Z,11.35
2023-04-13T10:15:52.780Z,11.37
2023-04-13T10:16:59.126Z,11.48
2023-04-13T10:18:01.522Z,11.50
2023-04-13T10:19:04.122Z,11.55
2023-04-13T10:20:06.879Z,11.49
2023-04-13T10:21:14.913Z,11.50
2023-04-13T10:22:21.534Z,11.53
2023-04-13T10:23:28.755Z,11.58
2023-04-13T10:24:30.975Z,11.62
2023-04-13T10:25:35.192Z,11.73
2023-04-13T10:26:37.619Z,11.71
2023-04-13T10:27:43.836Z,11.75
2023-04-13T10:28:47.625Z,11.71
2023-04-13T10:29:51.673Z,11.68
2023-04-13T10:30:55.519Z,11.67
2023-04-13T10:31:58.111Z,11.63
2023-04-13T10:33:06.756Z,11.64
2023-04-13T10:34:08.826Z,11.70
2023-04-13T10:35:11.145Z,11.66
2023-04-13T10:36:15.262Z,11.67
2023-04-13T10:37:17.678Z,11.61
2023-04-13T10:38:21.962Z,11.59
2023-04-13T10:39:24.087Z,11.65
2023-04-13T10:40:26.501Z,11.70
2023-04-13T10:41:30.654Z,11.74
2023-04-13T10:42:39.239Z,11.77
2023-04-13T10:43:37.137Z,11.76
2023-04-13T10:45:45.272Z,11.77
2023-04-13T10:46:47.678Z,11.79
2023-04-13T10:48:52.704Z,11.76
2023-04-13T10:49:55.059Z,11.80
2023-04-13T10:50:59.974Z,11.74
2023-04-13T10:52:02.715Z,11.75
2023-04-13T10:54:09.196Z,11.71
2023-04-13T10:55:11.725Z,11.70
2023-04-13T10:56:15.746Z,11.67
2023-04-13T10:57:18.076Z,11.62
2023-04-13T10:58:20.559Z,11.66
2023-04-13T10:59:23.107Z,11.65
2023-04-13T11:00:38.230Z,11.69
2023-04-13T11:01:29.398Z,11.70
2023-04-13T11:02:32.336Z,11.69
2023-04-13T11:03:34.373Z,11.63
2023-04-13T11:04:36.984Z,11.64
2023-04-13T11:05:39.172Z,11.59
2023-04-13T11:06:41.630Z,11.60
2023-04-13T11:07:44.045Z,11.65
2023-04-13T11:08:48.723Z,11.81
2023-04-13T11:09:52.278Z,11.88
2023-04-13T11:10:56.205Z,11.92
2023-04-13T11:11:58.530Z,12.03
2023-04-13T11:13:00.999Z,12.16
2023-04-13T11:14:03.536Z,12.29
2023-04-13T11:15:05.909Z,12.32
2023-04-13T11:17:12.643Z,12.30
2023-04-13T11:18:16.436Z,12.29
2023-04-13T11:19:18.777Z,12.28
2023-04-13T11:20:22.906Z,12.29
2023-04-13T11:22:29.201Z,12.26
2023-04-13T11:23:31.537Z,12.27
2023-04-13T11:24:35.651Z,12.30
2023-04-13T11:25:39.664Z,12.36
2023-04-13T11:26:43.349Z,12.38
2023-04-13T11:27:44.375Z,12.41
2023-04-13T11:28:46.835Z,12.55
2023-04-13T11:29:49.205Z,12.62
2023-04-13T11:30:53.283Z,12.61
2023-04-13T11:31:55.635Z,12.63
2023-04-13T11:32:58.098Z,12.58
2023-04-13T11:34:00.627Z,12.63
2023-04-13T11:35:03.014Z,12.64
2023-04-13T11:36:10.994Z,12.66
2023-04-13T11:37:13.169Z,12.67
2023-04-13T11:39:18.180Z,12.74
2023-04-13T11:40:22.228Z,12.80
2023-04-13T11:41:24.466Z,12.89
2023-04-13T11:42:27.033Z,12.94
2023-04-13T11:43:29.540Z,12.83
2023-04-13T11:44:31.879Z,12.85
2023-04-13T11:45:36.056Z,12.88
2023-04-13T11:46:38.416Z,12.91
2023-04-13T11:47:40.691Z,12.92
2023-04-13T11:48:43.166Z,12.96
2023-04-13T11:49:47.223Z,13.04
2023-04-13T11:50:51.205Z,13.10
2023-04-13T11:51:53.488Z,13.18
2023-04-13T11:52:57.504Z,13.26
2023-04-13T11:54:01.492Z,13.35
2023-04-13T11:56:06.263Z,13.29
2023-04-13T11:57:08.892Z,13.32
2023-04-13T11:58:11.258Z,13.38
2023-04-13T11:59:15.337Z,13.33
2023-04-13T12:00:17.849Z,13.34
2023-04-13T12:03:38.777Z,13.34
2023-04-13T12:05:34.021Z,13.31
2023-04-13T12:06:35.794Z,13.32
2023-04-13T12:07:38.172Z,13.36
2023-04-13T12:08:41.447Z,13.43
2023-04-13T12:11:07.038Z,13.54
2023-04-13T12:11:52.191Z,13.59
2023-04-13T12:12:56.604Z,13.58
2023-04-13T12:15:08.897Z,13.50
2023-04-13T12:17:07.783Z,13.45
2023-04-13T12:18:14.534Z,13.31
2023-04-13T12:19:09.603Z,13.16
2023-04-13T12:20:12.276Z,13.11
2023-04-13T12:21:13.426Z,13.15
2023-04-13T12:22:17.359Z,13.27
2023-04-13T12:23:22.637Z,13.21
2023-04-13T12:24:20.529Z,13.24
2023-04-13T12:25:25.347Z,13.30
2023-04-13T12:27:09.778Z,13.40
2023-04-13T12:27:30.841Z,13.48
2023-04-13T12:28:34.488Z,13.46
2023-04-13T12:29:37.428Z,13.37
2023-04-13T12:30:39.696Z,13.36
2023-04-13T12:31:42.196Z,13.25
2023-04-13T12:32:44.623Z,13.15
2023-04-13T12:33:47.107Z,13.10
2023-04-13T12:34:51.163Z,12.97
2023-04-13T12:35:53.503Z,12.89
2023-04-13T12:36:57.607Z,12.84
2023-04-13T12:39:05.526Z,12.85
2023-04-13T12:40:07.774Z,12.81
2023-04-13T12:41:10.252Z,12.75
2023-04-13T12:42:12.911Z,12.74
2023-04-13T12:43:16.812Z,12.89
2023-04-13T12:44:19.198Z,13.00
2023-04-13T12:46:25.677Z,12.99
2023-04-13T12:47:28.015Z,12.95
2023-04-13T12:48:30.422Z,12.94
2023-04-13T12:49:32.887Z,12.92
2023-04-13T12:50:35.216Z,12.85
2023-04-13T12:51:37.760Z,12.81
2023-04-13T12:52:40.160Z,12.79
2023-04-13T12:53:42.641Z,12.82
2023-04-13T12:54:46.757Z,12.81
2023-04-13T12:55:49.119Z,12.78
2023-04-13T12:56:51.462Z,12.79
2023-04-13T12:57:55.474Z,12.76
2023-04-13T13:00:00.466Z,12.74
2023-04-13T13:01:02.993Z,12.71
2023-04-13T13:02:05.390Z,12.63
2023-04-13T13:03:13.281Z,12.49
2023-04-13T13:04:11.855Z,12.40
2023-04-13T13:05:14.166Z,12.20
2023-04-13T13:06:18.229Z,12.07
2023-04-13T13:07:22.148Z,11.97
2023-04-13T13:08:24.423Z,11.79
2023-04-13T13:09:26.919Z,11.67
2023-04-13T13:10:30.121Z,11.51
2023-04-13T13:11:31.677Z,11.32
2023-04-13T13:12:34.098Z,11.20
2023-04-13T13:13:36.599Z,11.07
2023-04-13T13:14:39.083Z,10.96
2023-04-13T13:15:43.024Z,10.82
2023-04-13T13:16:45.394Z,10.70
2023-04-13T13:17:49.580Z,10.55
2023-04-13T13:18:51.876Z,10.47
2023-04-13T13:19:55.963Z,10.43
2023-04-13T13:20:59.831Z,10.38
2023-04-13T13:22:02.137Z,10.33
2023-04-13T13:23:06.126Z,10.30
2023-04-13T13:24:08.542Z,10.29
2023-04-13T13:25:12.977Z,10.24
2023-04-13T13:28:21.627Z,10.16
2023-04-13T13:29:23.995Z,10.14
2023-04-13T13:30:26.419Z,10.12
2023-04-13T13:31:28.750Z,10.10
2023-04-13T13:32:32.750Z,10.09
2023-04-13T13:33:35.192Z,10.08
2023-04-13T13:34:37.583Z,10.03
2023-04-13T13:35:40.085Z,10.05
2023-04-13T13:36:42.370Z,10.03
2023-04-13T13:37:46.432Z,10.02
2023-04-13T13:38:48.756Z,10.03
2023-04-13T13:39:52.863Z,10.04
2023-04-13T13:40:55.010Z,10.03
2023-04-13T13:41:59.077Z,10.00
2023-04-13T13:44:03.802Z,10.03
2023-04-13T13:46:08.825Z,10.05
2023-04-13T13:47:11.134Z,10.07
2023-04-13T13:48:13.604Z,10.08
2023-04-13T13:49:16.221Z,10.09
2023-04-13T13:50:20.163Z,10.10
2023-04-13T13:52:24.849Z,10.11
2023-04-13T13:53:27.403Z,10.13
2023-04-13T13:54:29.857Z,10.16
2023-04-13T13:55:32.273Z,10.20
2023-04-13T13:56:36.271Z,10.22
2023-04-13T13:57:38.644Z,10.27
2023-04-13T13:58:41.110Z,10.28
2023-04-13T13:59:43.515Z,10.30
2023-04-13T14:00:45.842Z,10.33
2023-04-13T14:01:48.418Z,10.38
2023-04-13T14:02:50.897Z,10.41
2023-04-13T14:03:53.418Z,10.46
2023-04-13T14:04:55.747Z,10.53
2023-04-13T14:05:58.205Z,10.57
2023-04-13T14:07:00.530Z,10.61
2023-04-13T14:08:04.585Z,10.67
2023-04-13T14:09:07.088Z,10.75
2023-04-13T14:10:09.454Z,10.84
2023-04-13T14:11:11.968Z,10.91
2023-04-13T14:12:14.519Z,11.06
2023-04-13T14:13:16.980Z,11.19
2023-04-13T14:14:22.110Z,11.32
2023-04-13T14:15:23.243Z,11.46
2023-04-13T14:16:25.750Z,11.56
2023-04-13T14:17:30.925Z,11.66
2023-04-13T14:18:33.090Z,11.75
2023-04-13T14:19:39.885Z,11.78
2023-04-13T14:20:43.611Z,11.76
2023-04-13T14:21:45.873Z,11.75
2023-04-13T14:22:48.303Z,11.72
2023-04-13T14:24:53.145Z,11.71
2023-04-13T14:25:55.580Z,11.69
2023-04-13T14:26:57.949Z,11.67
2023-04-13T14:28:01.980Z,11.64
2023-04-13T14:29:04.303Z,11.59
2023-04-13T14:30:06.830Z,11.58
2023-04-13T14:31:09.327Z,11.54
2023-04-13T14:32:13.318Z,11.51
2023-04-13T14:34:21.419Z,11.48
2023-04-13T14:36:29.289Z,11.49
2023-04-13T14:37:31.615Z,11.46
2023-04-13T14:38:33.999Z,11.45
2023-04-13T14:39:36.512Z,11.44
2023-04-13T14:40:38.774Z,11.38
2023-04-13T14:41:42.904Z,11.34
2023-04-13T14:42:45.169Z,11.30
2023-04-13T14:43:49.217Z,11.24
2023-04-13T14:44:53.204Z,11.21
2023-04-13T14:45:57.373Z,11.18
2023-04-13T14:47:01.119Z,11.11
2023-04-13T14:48:05.080Z,11.08
2023-04-13T14:49:07.440Z,11.05
2023-04-13T14:50:11.468Z,11.04
2023-04-13T14:51:13.758Z,11.01
2023-04-13T14:52:21.412Z,10.98
2023-04-13T14:53:25.223Z,10.97
2023-04-13T14:54:29.208Z,10.96
2023-04-13T14:55:32.953Z,10.97
2023-04-13T14:57:37.747Z,10.96
2023-04-13T14:58:40.201Z,10.92
2023-04-13T14:59:42.649Z,10.88
2023-04-13T15:00:46.802Z,10.85
2023-04-13T15:01:49.274Z,10.81
2023-04-13T15:02:55.547Z,10.79
2023-04-13T15:03:57.824Z,10.80
2023-04-13T15:05:00.280Z,10.75
2023-04-13T15:07:06.439Z,10.73
2023-04-13T15:08:08.955Z,10.72
2023-04-13T15:10:13.953Z,10.69
2023-04-13T15:13:22.780Z,10.68
2023-04-13T15:14:26.724Z,10.69
2023-04-13T15:18:39.261Z,10.71
2023-04-13T15:19:42.736Z,10.70
2023-04-13T15:20:45.060Z,10.71
2023-04-13T15:22:51.597Z,10.72
2023-04-13T15:23:53.873Z,10.71
2023-04-13T15:24:57.893Z,10.73
2023-04-13T15:28:05.222Z,10.75
2023-04-13T15:29:12.026Z,10.76
2023-04-13T15:32:21.997Z,10.77
2023-04-13T15:33:24.295Z,10.80
2023-04-13T15:34:28.324Z,10.84
2023-04-13T15:35:32.206Z,10.91
2023-04-13T15:36:36.113Z,10.99
2023-04-13T15:41:34.482Z,11.52
2023-04-13T15:55:49.494Z,12.18
2023-04-13T16:10:04.384Z,12.79
2023-04-13T16:24:17.597Z,12.8
2023-04-13T16:38:28.303Z,11.75
2023-04-13T16:52:39.563Z,11.11
2023-04-13T17:06:51.395Z,10.56
2023-04-13T17:21:03.090Z,10.07
2023-04-13T17:35:13.735Z,9.5
2023-04-13T17:49:25.116Z,9.07
2023-04-13T18:03:36.984Z,8.55
2023-04-13T18:17:48.480Z,8.04
2023-04-13T18:31:58.608Z,7.53
2023-04-13T18:46:10.710Z,7.11
2023-04-13T19:00:22.408Z,6.99
2023-04-13T19:14:36.109Z,6.72
2023-04-13T19:28:43.504Z,6.52
2023-04-13T19:42:53.681Z,6.35
2023-04-13T19:57:04.853Z,6.02
2023-04-13T20:11:15.277Z,5.56
2023-04-13T20:25:26.418Z,5.29
2023-04-13T20:39:37.472Z,5.07
2023-04-13T20:53:48.928Z,4.98
2023-04-13T21:08:00.358Z,4.82
2023-04-13T21:22:11.564Z,4.58
2023-04-13T21:50:33.894Z,4.52
2023-04-13T22:04:46.093Z,4.59
2023-04-13T22:18:56.138Z,4.24
2023-04-13T22:33:06.945Z,3.84
2023-04-13T22:47:18.545Z,3.69
2023-04-13T23:01:30.254Z,3.6
2023-04-13T23:15:44.948Z,3.79
2023-04-13T23:29:52.950Z,3.58
2023-04-13T23:44:03.460Z,3.32
2023-04-13T23:58:15.012Z,3.11
